Latest Weather Observations for Stawell

IDV60801

Issued at 8:35 pm EDT Friday 30 January 2015 (issued every 30 minutes, with the page automatically refreshed every 10 minutes)

About weather observations | Map of weather stations | Latest weather observations for VIC | Other Formats
Station Details ID: 079105 Name: STAWELL AERODROME Lat: -37.07 Lon: 142.74 Height: 235.36 m
Data from the previous 72 hours. | See also: Recent months at Stawell
Date/Time
EDT
Temp
°C
App
Temp
°C
Dew
Point
Rel
Hum
%
Delta-T
°C
Wind Press
QNH
hPa
Press
MSL
hPa
Rain
since 9 am
mm
Dir
 
Spd
km/h
Gust
km/h
Spd
kts
Gust
kts
30/08:30pm 17.2 12.1 6.1 48 5.5 S 22 35 12 19 1012.5 - 0.0
30/08:00pm 18.6 12.6 5.5 42 6.5 S 26 39 14 21 1012.4 - 0.0
30/07:30pm 20.2 14.5 5.1 37 7.5 S 24 33 13 18 1012.0 - 0.0
30/07:00pm 20.9 15.2 4.9 35 7.9 SSW 24 39 13 21 1011.7 - 0.0
30/06:30pm 21.2 15.1 4.7 34 8.2 S 26 44 14 24 1011.6 - 0.0
30/06:00pm 22.2 16.1 4.7 32 8.7 SSW 26 43 14 23 1011.7 1011.7 0.0
30/05:30pm 22.7 17.6 4.2 30 9.2 S 20 33 11 18 1011.8 - 0.0
30/05:00pm 22.4 16.5 4.0 30 9.1 S 24 39 13 21 1012.1 - 0.0
30/04:30pm 22.5 17.4 4.1 30 9.1 S 20 35 11 19 1012.2 - 0.0
30/04:00pm 21.6 17.0 3.8 31 8.7 SSW 17 32 9 17 1012.7 - 0.0
30/03:30pm 21.8 16.3 3.9 31 8.8 S 22 32 12 17 1012.9 - 0.0
30/03:00pm 21.3 16.2 4.0 32 8.4 S 20 32 11 17 1013.6 1013.5 0.0
30/02:30pm 21.5 16.1 4.6 33 8.4 S 22 35 12 19 1014.2 - 0.0
30/02:00pm 19.6 13.7 4.1 36 7.5 SSW 24 35 13 19 1014.7 - 0.0
30/01:30pm 19.6 15.1 4.1 36 7.5 SSW 17 39 9 21 1015.1 - 0.0
30/01:00pm 20.0 15.0 3.7 34 7.8 SSE 19 28 10 15 1015.3 - 0.0
30/12:30pm 19.7 14.9 4.6 37 7.4 S 19 30 10 16 1015.5 - 0.0
30/12:00pm 18.6 13.1 4.0 38 7.0 SSE 22 35 12 19 1015.9 1015.9 0.0
30/11:30am 19.3 14.1 5.7 41 6.8 SSE 22 32 12 17 1016.1 - 0.0
30/11:00am 17.2 12.5 6.1 48 5.5 S 20 30 11 16 1016.4 - 0.0
30/10:30am 15.7 10.8 7.0 56 4.3 S 22 30 12 16 1016.8 - 0.0
30/10:00am 16.1 10.2 6.0 51 4.9 SE 26 33 14 18 1016.7 - 0.0
30/09:30am 15.5 10.6 8.3 62 3.7 SSE 24 32 13 17 1016.6 - 0.0
30/09:00am 14.6 10.5 8.8 68 3.0 SSE 20 28 11 15 1016.7 1016.7 0.0
30/08:30am 13.9 10.4 8.7 71 2.7 SSE 17 20 9 11 1016.7 - 0.0
30/08:00am 12.3 9.1 8.6 78 1.9 S 15 22 8 12 1016.6 - 0.0
30/07:30am 11.4 9.3 8.4 82 1.5 S 9 17 5 9 1016.3 - 0.0
30/07:00am 11.2 8.0 8.6 84 1.3 SSE 15 20 8 11 1016.3 - 0.0
30/06:30am 10.8 8.3 8.4 85 1.2 S 11 17 6 9 1016.1 - 0.0
30/06:00am 11.1 7.5 8.5 84 1.3 S 17 24 9 13 1015.9 1015.9 0.0
30/05:30am 11.2 8.0 8.6 84 1.3 S 15 24 8 13 1015.6 - 0.0
30/05:00am 11.5 7.0 8.5 82 1.5 SSE 22 26 12 14 1015.3 - 0.0
30/04:30am 11.5 6.2 8.5 82 1.5 SSE 26 33 14 18 1015.4 - 0.0
30/04:00am 11.7 7.2 8.6 81 1.6 SSE 22 30 12 16 1015.4 - 0.0
30/03:30am 11.9 7.4 8.7 81 1.6 SSE 22 30 12 16 1015.6 - 0.0
30/03:00am 12.1 8.0 8.8 80 1.7 S 20 28 11 15 1015.8 1015.8 0.0
30/02:30am 12.2 8.7 8.7 79 1.8 SSE 17 20 9 11 1016.3 - 0.0
30/02:00am 12.5 8.6 8.8 78 1.9 SSE 19 24 10 13 1016.4 - 0.0
30/01:30am 12.8 9.6 8.5 75 2.2 SSE 15 20 8 11 1016.7 - 0.0
30/01:00am 13.0 10.5 8.3 73 2.4 S 11 20 6 11 1016.8 - 0.0
30/12:30am 13.6 10.3 8.2 70 2.7 SSE 15 22 8 12 1016.9 - 0.0
30/12:00am 13.8 10.4 7.8 67 3.0 SSE 15 22 8 12 1017.0 1017.0 0.0
 
Date/Time
EDT
Temp
°C
App
Temp
°C
Dew
Point
Rel
Hum
%
Delta-T
°C
Wind Press
QNH
hPa
Press
MSL
hPa
Rain
since 9 am
mm
Dir
 
Spd
km/h
Gust
km/h
Spd
kts
Gust
kts
29/11:30pm 14.1 9.9 7.4 64 3.3 SE 19 26 10 14 1017.3 - 0.0
29/11:00pm 14.6 9.7 6.9 60 3.8 SE 22 33 12 18 1017.5 - 0.0
29/10:30pm 15.1 9.3 6.4 56 4.3 SE 26 35 14 19 1017.4 - 0.0
29/10:00pm 15.9 10.1 6.1 52 4.8 SE 26 39 14 21 1017.2 - 0.0
29/09:30pm 16.6 11.0 5.6 48 5.4 SE 24 37 13 20 1017.0 - 0.0
29/09:00pm 17.3 11.3 5.3 45 5.8 SSE 26 41 14 22 1016.7 1016.7 0.0
29/08:30pm 18.2 12.0 4.4 40 6.6 SE 26 41 14 22 1016.4 - 0.0
29/08:00pm 19.6 13.1 2.9 33 7.9 SE 26 41 14 22 1016.0 - 0.0
29/07:30pm 20.5 13.1 1.9 29 8.7 SSE 30 41 16 22 1015.8 - 0.0
29/07:00pm 21.1 13.7 1.9 28 9.0 SSE 30 44 16 24 1015.5 - 0.0
29/06:35pm 22.2 15.3 2.3 27 9.5 SE 28 48 15 26 1015.3 - 0.0
29/06:30pm 21.7 14.3 1.9 27 9.3 SE 30 41 16 22 1015.4 - 0.0
29/06:00pm 22.0 14.7 2.2 27 9.4 SSE 30 43 16 23 1015.4 1015.4 0.0
29/05:30pm 22.1 14.3 1.7 26 9.6 SE 32 46 17 25 1015.5 - 0.0
29/05:00pm 22.6 14.9 2.1 26 9.7 SE 32 46 17 25 1015.7 - 0.0
29/04:40pm 23.0 15.3 2.5 26 9.9 SSE 32 50 17 27 1015.8 - 0.0
29/04:30pm 22.8 15.2 2.8 27 9.7 SSE 32 41 17 22 1015.8 - 0.0
29/04:00pm 23.2 16.4 3.2 27 9.8 SE 28 48 15 26 1016.2 - 0.0
29/03:30pm 22.5 15.8 3.6 29 9.2 SSE 28 48 15 26 1016.6 - 0.0
29/03:25pm 22.6 15.8 3.2 28 9.4 SE 28 48 15 26 1016.5 - 0.0
29/03:00pm 22.8 15.8 3.9 29 9.3 SSE 30 43 16 23 1017.1 1017.1 0.0
29/02:38pm 22.7 15.9 3.3 28 9.4 SE 28 48 15 26 1017.1 - 0.0
29/02:30pm 22.9 16.6 3.9 29 9.4 SE 26 41 14 22 1017.2 - 0.0
29/02:00pm 22.0 14.0 3.6 30 9.0 SSE 35 52 19 28 1017.5 - 0.0
29/01:56pm 22.1 14.7 4.2 31 8.8 ESE 32 52 17 28 1017.6 - 0.0
29/01:30pm 21.5 14.4 3.7 31 8.7 SSE 30 46 16 25 1017.9 - 0.0
29/01:09pm 21.5 15.0 4.6 33 8.4 SE 28 52 15 28 1018.2 - 0.0
29/01:00pm 21.5 15.0 4.6 33 8.4 SE 28 44 15 24 1018.3 - 0.0
29/12:30pm 20.6 13.7 4.6 35 7.9 SE 30 41 16 22 1018.5 - 0.0
29/12:00pm 19.5 13.7 4.4 37 7.3 SE 24 43 13 23 1018.9 1018.9 0.0
29/11:30am 19.7 14.3 4.6 37 7.4 SE 22 39 12 21 1019.0 - 0.0
29/11:00am 19.0 12.8 4.4 38 7.1 SE 26 44 14 24 1019.1 - 0.0
29/10:30am 17.7 11.8 5.6 45 5.9 SE 26 37 14 20 1019.2 - 0.0
29/10:00am 17.0 10.3 5.6 47 5.6 SE 30 44 16 24 1019.2 - 0.0
29/09:30am 16.2 10.9 6.9 54 4.6 SSE 24 33 13 18 1019.5 - 0.0
29/09:00am 15.1 9.8 6.9 58 4.1 SSE 24 35 13 19 1019.4 1019.4 0.0
29/08:30am 14.1 10.1 8.1 67 3.0 SSE 19 26 10 14 1019.3 - 0.0
29/08:00am 11.9 9.4 8.4 79 1.7 S 11 17 6 9 1019.0 - 0.0
29/07:30am 12.9 9.1 7.6 70 2.6 SSE 17 24 9 13 1018.7 - 0.0
29/07:00am 12.1 9.2 8.0 76 2.0 SSE 13 19 7 10 1018.4 - 0.0
29/06:30am 11.5 9.0 8.0 79 1.7 S 11 19 6 10 1018.0 - 0.0
29/06:00am 11.5 7.5 8.2 80 1.6 S 19 22 10 12 1018.0 1017.9 0.0
29/05:30am 11.8 7.8 8.1 78 1.8 SSE 19 24 10 13 1017.6 - 0.0
29/05:00am 11.9 7.9 8.4 79 1.7 SSE 19 26 10 14 1017.4 - 0.0
29/04:30am 12.0 8.8 8.5 79 1.8 SSE 15 22 8 12 1017.2 - 0.0
29/04:00am 12.1 8.2 8.6 79 1.8 SSE 19 24 10 13 1017.2 - 0.0
29/03:30am 12.8 9.4 9.1 78 1.9 SE 17 24 9 13 1017.3 - 0.0
29/03:00am 12.9 9.1 9.2 78 1.9 SE 19 26 10 14 1017.5 1017.5 0.0
29/02:30am 12.9 9.0 8.8 76 2.1 SE 19 28 10 15 1017.6 - 0.0
29/02:00am 13.0 8.9 8.7 75 2.2 SE 20 32 11 17 1018.0 - 0.0
29/01:30am 13.3 8.8 8.4 72 2.5 SSE 22 33 12 18 1018.3 - 0.0
29/01:00am 13.6 7.9 8.2 70 2.7 SSE 28 41 15 22 1018.4 - 0.0
29/12:30am 13.9 7.7 7.9 67 3.0 SSE 30 44 16 24 1018.2 - 0.0
29/12:00am 14.3 7.0 7.4 63 3.4 SSE 35 44 19 24 1018.1 1018.0 0.0
 
Date/Time
EDT
Temp
°C
App
Temp
°C
Dew
Point
Rel
Hum
%
Delta-T
°C
Wind Press
QNH
hPa
Press
MSL
hPa
Rain
since 9 am
mm
Dir
 
Spd
km/h
Gust
km/h
Spd
kts
Gust
kts
28/11:30pm 14.8 7.7 6.6 58 4.0 SE 33 46 18 25 1018.2 - 0.0
28/11:00pm 15.3 8.6 5.5 52 4.7 SE 30 41 16 22 1018.1 - 0.0
28/10:30pm 16.0 9.5 4.7 47 5.4 SE 28 44 15 24 1018.2 - 0.0
28/10:00pm 16.6 10.7 5.6 48 5.4 SSE 26 43 14 23 1018.0 - 0.0
28/09:30pm 17.3 11.0 5.6 46 5.7 SE 28 41 15 22 1017.6 - 0.0
28/09:00pm 18.1 11.3 5.3 43 6.3 SSE 30 43 16 23 1017.1 1017.1 0.0
28/08:30pm 19.3 12.2 5.7 41 6.8 SSE 32 41 17 22 1016.6 - 0.0
28/08:12pm 20.1 13.1 6.1 40 7.1 SSE 32 50 17 27 1016.4 - 0.0
28/08:00pm 20.7 14.4 5.9 38 7.5 SE 28 43 15 23 1016.3 - 0.0
28/07:30pm 21.7 15.3 5.2 34 8.3 SSE 28 39 15 21 1016.0 - 0.0
28/07:00pm 22.9 15.8 5.3 32 8.9 SSE 32 46 17 25 1015.5 - 0.0
28/06:40pm 23.0 16.3 5.4 32 8.9 SSE 30 48 16 26 1015.3 - 0.0
28/06:30pm 23.3 16.1 5.7 32 9.0 SSE 33 48 18 26 1015.3 - 0.0
28/06:00pm 23.9 16.9 6.2 32 9.2 SE 32 46 17 25 1015.2 1015.2 0.0
28/05:30pm 24.1 17.5 5.9 31 9.4 SE 30 44 16 24 1015.1 - 0.0
28/05:00pm 24.3 17.1 5.1 29 9.8 SE 32 52 17 28 1015.1 - 0.0
28/04:38pm 24.9 18.0 4.6 27 10.3 SE 30 50 16 27 1015.1 - 0.0
28/04:30pm 24.9 18.5 5.2 28 10.1 SE 28 41 15 22 1015.2 - 0.0
28/04:00pm 24.9 17.7 5.2 28 10.1 SSE 32 48 17 26 1015.2 - 0.0
28/03:43pm 24.6 17.7 4.4 27 10.2 SE 30 50 16 27 1015.2 - 0.0
28/03:30pm 25.1 18.4 3.7 25 10.7 SSE 28 44 15 24 1015.3 - 0.0
28/03:00pm 24.3 18.4 4.1 27 10.1 SE 24 37 13 20 1015.4 1015.4 0.0
28/02:30pm 24.5 17.2 2.6 24 10.7 SSE 30 44 16 24 1015.5 - 0.0
28/02:05pm 24.1 17.2 4.5 28 9.9 SE 30 48 16 26 1015.6 - 0.0
28/02:00pm 23.9 17.7 4.3 28 9.8 SE 26 41 14 22 1015.7 - 0.0
28/01:30pm 22.9 16.3 4.4 30 9.2 SE 28 44 15 24 1016.1 - 0.0
28/01:00pm 22.6 15.8 5.1 32 8.8 SE 30 46 16 25 1016.1 - 0.0
28/12:51pm 22.2 15.3 4.7 32 8.7 SE 30 48 16 26 1016.2 - 0.0
28/12:30pm 21.8 15.0 5.3 34 8.3 SE 30 43 16 23 1016.3 - 0.0
28/12:00pm 20.4 13.7 5.6 38 7.4 SE 30 50 16 27 1016.5 1016.5 0.0
28/11:56am 20.4 14.1 5.6 38 7.4 SE 28 46 15 25 1016.5 - 0.0
28/11:30am 20.3 13.6 5.5 38 7.4 SSE 30 43 16 23 1016.7 - 0.0
28/11:03am 18.8 12.3 6.6 45 6.2 SSE 30 48 16 26 1016.9 - 0.0
28/11:00am 19.0 13.0 7.1 46 6.1 SSE 28 41 15 22 1016.9 - 0.0
28/10:30am 18.3 13.0 8.6 53 5.1 SSE 26 39 14 21 1016.9 - 0.0
28/10:00am 16.9 11.2 8.3 57 4.4 SSE 28 39 15 21 1016.9 - 0.0
28/09:56am 16.7 10.6 8.1 57 4.4 SE 30 48 16 26 1016.9 - 0.0
28/09:30am 15.6 9.2 8.4 62 3.7 SSE 32 43 17 23 1017.0 - 0.0
28/09:00am 15.1 8.8 8.8 66 3.2 S 32 46 17 25 1016.8 1016.8 0.0
28/08:30am 13.3 7.6 8.4 72 2.5 S 28 39 15 21 1016.7 - 0.0
28/08:00am 12.6 6.9 8.3 75 2.2 S 28 37 15 20 1016.3 - 0.0
28/07:30am 11.8 7.1 7.9 77 1.9 S 22 35 12 19 1016.3 - 0.0
28/07:00am 11.2 6.8 7.5 78 1.8 S 20 37 11 20 1016.0 - 0.0
28/06:30am 11.1 6.3 7.4 78 1.8 S 22 33 12 18 1015.8 - 0.0
28/06:00am 11.0 6.6 7.3 78 1.8 S 20 30 11 16 1015.4 1015.4 0.0
28/05:30am 11.1 8.0 7.2 77 1.9 S 13 26 7 14 1015.4 - 0.0
28/05:00am 11.5 7.1 6.6 72 2.3 S 19 35 10 19 1015.2 - 0.0
28/04:30am 11.4 7.8 6.7 73 2.3 S 15 20 8 11 1015.2 - 0.0
28/04:00am 11.8 8.6 6.7 71 2.5 S 13 20 7 11 1015.2 - 0.0
28/03:30am 12.3 8.3 6.8 69 2.7 S 17 32 9 17 1015.0 - 0.0
28/03:00am 12.1 8.5 6.8 70 2.6 S 15 22 8 12 1015.2 1015.2 0.0
28/02:30am 12.0 8.8 6.9 71 2.5 SSW 13 22 7 12 1015.5 - 0.0
28/02:00am 12.2 7.3 7.1 71 2.5 S 22 43 12 23 1015.6 - 0.0
28/01:30am 12.6 6.8 6.4 66 3.0 S 26 39 14 21 1015.9 - 0.0
28/01:00am 12.8 8.1 6.2 64 3.2 SSE 20 35 11 19 1016.0 - 0.0
28/12:30am 13.0 8.3 5.9 62 3.4 S 20 32 11 17 1016.1 - 0.0
28/12:00am 13.3 7.7 5.5 59 3.7 SSE 24 43 13 23 1016.1 1016.1 0.0
 
Date/Time
EDT
Temp
°C
App
Temp
°C
Dew
Point
Rel
Hum
%
Delta-T
°C
Wind Press
QNH
hPa
Press
MSL
hPa
Rain
since 9 am
mm
Dir
 
Spd
km/h
Gust
km/h
Spd
kts
Gust
kts
27/11:30pm 13.8 8.3 5.7 58 3.9 SSE 24 39 13 21 1016.4 - 0.0
27/11:00pm 14.1 8.0 4.7 53 4.4 SSE 26 39 14 21 1016.5 - 0.0
27/10:30pm 14.5 8.0 4.8 52 4.6 SSE 28 39 15 21 1016.4 - 0.0
27/10:00pm 14.8 9.5 5.1 52 4.6 SSE 22 39 12 21 1016.1 - 0.0
27/09:30pm 15.1 9.8 4.8 50 4.9 SSE 22 37 12 20 1015.9 - 0.0
27/09:00pm 15.6 8.8 5.2 50 5.0 S 30 41 16 22 1015.8 1015.8 0.0

Other Formats:

Comma delimited format used in spreadsheet applications
http://www.bom.gov.au/fwo/IDV60801/IDV60801.94836.axf

JavaScript Object Notation format (JSON) in row-major order
http://www.bom.gov.au/fwo/IDV60801/IDV60801.94836.json